sensor_id;sensor_type;location;lat;lon;timestamp;temperature;humidity
74101;DHT22;62462;52.530;21.682;2022-09-21T00:00:37;11.60;79.80
74101;DHT22;62462;52.530;21.682;2022-09-21T00:03:03;11.70;79.90
74101;DHT22;62462;52.530;21.682;2022-09-21T00:05:29;11.70;79.80
74101;DHT22;62462;52.530;21.682;2022-09-21T00:07:59;11.70;79.90
74101;DHT22;62462;52.530;21.682;2022-09-21T00:10:25;11.70;79.90
74101;DHT22;62462;52.530;21.682;2022-09-21T00:12:51;11.70;80.00
74101;DHT22;62462;52.530;21.682;2022-09-21T00:15:18;11.70;80.00
74101;DHT22;62462;52.530;21.682;2022-09-21T00:17:45;11.70;79.70
74101;DHT22;62462;52.530;21.682;2022-09-21T00:20:12;11.70;79.70
74101;DHT22;62462;52.530;21.682;2022-09-21T00:22:39;11.70;80.00
74101;DHT22;62462;52.530;21.682;2022-09-21T00:25:06;11.60;80.10
74101;DHT22;62462;52.530;21.682;2022-09-21T00:27:32;11.60;80.20
74101;DHT22;62462;52.530;21.682;2022-09-21T00:29:59;11.60;80.20
74101;DHT22;62462;52.530;21.682;2022-09-21T00:32:27;11.60;80.10
74101;DHT22;62462;52.530;21.682;2022-09-21T00:34:56;11.60;80.20
74101;DHT22;62462;52.530;21.682;2022-09-21T00:37:23;11.60;80.40
74101;DHT22;62462;52.530;21.682;2022-09-21T00:39:49;11.60;80.30
74101;DHT22;62462;52.530;21.682;2022-09-21T00:42:21;11.60;80.40
74101;DHT22;62462;52.530;21.682;2022-09-21T00:44:47;11.60;80.60
74101;DHT22;62462;52.530;21.682;2022-09-21T00:47:21;11.60;80.50
74101;DHT22;62462;52.530;21.682;2022-09-21T00:49:50;11.60;80.40
74101;DHT22;62462;52.530;21.682;2022-09-21T00:52:19;11.60;80.60
74101;DHT22;62462;52.530;21.682;2022-09-21T00:54:51;11.60;80.70
74101;DHT22;62462;52.530;21.682;2022-09-21T00:57:19;11.60;80.60
74101;DHT22;62462;52.530;21.682;2022-09-21T00:59:49;11.70;80.50
74101;DHT22;62462;52.530;21.682;2022-09-21T01:02:16;11.80;80.20
74101;DHT22;62462;52.530;21.682;2022-09-21T01:04:43;11.80;80.10
74101;DHT22;62462;52.530;21.682;2022-09-21T01:07:15;11.90;80.10
74101;DHT22;62462;52.530;21.682;2022-09-21T01:09:45;11.90;79.90
74101;DHT22;62462;52.530;21.682;2022-09-21T01:12:37;12.00;79.90
74101;DHT22;62462;52.530;21.682;2022-09-21T01:15:39;11.90;80.10
74101;DHT22;62462;52.530;21.682;2022-09-21T01:18:17;11.90;80.50
74101;DHT22;62462;52.530;21.682;2022-09-21T01:26:38;11.80;81.30
74101;DHT22;62462;52.530;21.682;2022-09-21T01:34:43;11.90;81.70
74101;DHT22;62462;52.530;21.682;2022-09-21T01:37:21;11.90;81.60
74101;DHT22;62462;52.530;21.682;2022-09-21T01:39:53;12.00;81.60
74101;DHT22;62462;52.530;21.682;2022-09-21T01:42:22;12.00;81.70
74101;DHT22;62462;52.530;21.682;2022-09-21T01:44:50;12.10;82.00
74101;DHT22;62462;52.530;21.682;2022-09-21T01:47:17;12.10;81.70
74101;DHT22;62462;52.530;21.682;2022-09-21T01:49:47;12.20;81.60
74101;DHT22;62462;52.530;21.682;2022-09-21T01:55:02;12.20;81.50
74101;DHT22;62462;52.530;21.682;2022-09-21T01:57:46;12.30;81.60
74101;DHT22;62462;52.530;21.682;2022-09-21T02:00:14;12.30;81.50
74101;DHT22;62462;52.530;21.682;2022-09-21T02:02:54;12.30;81.90
74101;DHT22;62462;52.530;21.682;2022-09-21T02:05:24;12.30;81.80
74101;DHT22;62462;52.530;21.682;2022-09-21T02:07:52;12.30;82.10
74101;DHT22;62462;52.530;21.682;2022-09-21T02:10:49;12.30;82.30
74101;DHT22;62462;52.530;21.682;2022-09-21T02:13:17;12.20;82.50
74101;DHT22;62462;52.530;21.682;2022-09-21T02:18:47;12.20;83.10
74101;DHT22;62462;52.530;21.682;2022-09-21T02:21:29;12.20;82.90
74101;DHT22;62462;52.530;21.682;2022-09-21T02:26:28;12.20;82.90
74101;DHT22;62462;52.530;21.682;2022-09-21T02:28:56;12.20;83.10
74101;DHT22;62462;52.530;21.682;2022-09-21T02:31:43;12.20;83.40
74101;DHT22;62462;52.530;21.682;2022-09-21T02:34:21;12.30;83.40
74101;DHT22;62462;52.530;21.682;2022-09-21T02:36:55;12.20;83.30
74101;DHT22;62462;52.530;21.682;2022-09-21T02:39:41;12.30;83.50
74101;DHT22;62462;52.530;21.682;2022-09-21T02:42:36;12.30;83.60
74101;DHT22;62462;52.530;21.682;2022-09-21T02:45:11;12.30;83.60
74101;DHT22;62462;52.530;21.682;2022-09-21T02:50:34;12.40;83.20
74101;DHT22;62462;52.530;21.682;2022-09-21T02:53:02;12.30;83.30
74101;DHT22;62462;52.530;21.682;2022-09-21T02:55:31;12.30;83.70
74101;DHT22;62462;52.530;21.682;2022-09-21T02:58:01;12.30;83.70
74101;DHT22;62462;52.530;21.682;2022-09-21T03:00:28;12.30;83.60
74101;DHT22;62462;52.530;21.682;2022-09-21T03:02:54;12.30;83.40
74101;DHT22;62462;52.530;21.682;2022-09-21T03:05:19;12.30;83.50
74101;DHT22;62462;52.530;21.682;2022-09-21T03:07:45;12.40;83.30
74101;DHT22;62462;52.530;21.682;2022-09-21T03:10:11;12.40;83.20
74101;DHT22;62462;52.530;21.682;2022-09-21T03:12:37;12.40;83.20
74101;DHT22;62462;52.530;21.682;2022-09-21T03:15:03;12.40;83.20
74101;DHT22;62462;52.530;21.682;2022-09-21T03:17:29;12.40;83.30
74101;DHT22;62462;52.530;21.682;2022-09-21T03:19:55;12.40;83.20
74101;DHT22;62462;52.530;21.682;2022-09-21T03:22:22;12.40;83.20
74101;DHT22;62462;52.530;21.682;2022-09-21T03:24:49;12.40;83.20
74101;DHT22;62462;52.530;21.682;2022-09-21T03:27:17;12.50;83.10
74101;DHT22;62462;52.530;21.682;2022-09-21T03:29:43;12.50;83.20
74101;DHT22;62462;52.530;21.682;2022-09-21T03:32:10;12.50;83.10
74101;DHT22;62462;52.530;21.682;2022-09-21T03:34:35;12.50;83.10
74101;DHT22;62462;52.530;21.682;2022-09-21T03:37:03;12.50;83.00
74101;DHT22;62462;52.530;21.682;2022-09-21T03:39:30;12.50;82.90
74101;DHT22;62462;52.530;21.682;2022-09-21T03:41:56;12.50;82.90
74101;DHT22;62462;52.530;21.682;2022-09-21T03:44:25;12.50;82.80
74101;DHT22;62462;52.530;21.682;2022-09-21T03:46:51;12.60;82.80
74101;DHT22;62462;52.530;21.682;2022-09-21T03:49:18;12.60;82.80
74101;DHT22;62462;52.530;21.682;2022-09-21T03:51:44;12.60;82.70
74101;DHT22;62462;52.530;21.682;2022-09-21T03:54:10;12.60;82.70
74101;DHT22;62462;52.530;21.682;2022-09-21T03:56:36;12.60;82.60
74101;DHT22;62462;52.530;21.682;2022-09-21T03:59:02;12.60;82.80
74101;DHT22;62462;52.530;21.682;2022-09-21T04:01:28;12.60;82.70
74101;DHT22;62462;52.530;21.682;2022-09-21T04:03:54;12.60;82.70
74101;DHT22;62462;52.530;21.682;2022-09-21T04:06:20;12.60;82.80
74101;DHT22;62462;52.530;21.682;2022-09-21T04:08:46;12.60;82.90
74101;DHT22;62462;52.530;21.682;2022-09-21T04:11:14;12.60;83.00
74101;DHT22;62462;52.530;21.682;2022-09-21T04:13:40;12.60;83.00
74101;DHT22;62462;52.530;21.682;2022-09-21T04:16:07;12.60;83.00
74101;DHT22;62462;52.530;21.682;2022-09-21T04:18:35;12.60;82.90
74101;DHT22;62462;52.530;21.682;2022-09-21T04:21:01;12.60;82.90
74101;DHT22;62462;52.530;21.682;2022-09-21T04:23:27;12.60;83.00
74101;DHT22;62462;52.530;21.682;2022-09-21T04:25:53;12.70;82.80
74101;DHT22;62462;52.530;21.682;2022-09-21T04:28:20;12.70;83.10
74101;DHT22;62462;52.530;21.682;2022-09-21T04:30:47;12.70;83.00
74101;DHT22;62462;52.530;21.682;2022-09-21T04:33:12;12.70;83.10
74101;DHT22;62462;52.530;21.682;2022-09-21T04:35:38;12.70;83.40
74101;DHT22;62462;52.530;21.682;2022-09-21T04:38:04;12.60;83.40
74101;DHT22;62462;52.530;21.682;2022-09-21T04:40:30;12.60;83.30
74101;DHT22;62462;52.530;21.682;2022-09-21T04:42:56;12.70;83.40
74101;DHT22;62462;52.530;21.682;2022-09-21T04:45:23;12.70;83.40
74101;DHT22;62462;52.530;21.682;2022-09-21T04:47:49;12.70;83.70
74101;DHT22;62462;52.530;21.682;2022-09-21T04:50:15;12.70;83.50
74101;DHT22;62462;52.530;21.682;2022-09-21T04:52:41;12.70;83.40
74101;DHT22;62462;52.530;21.682;2022-09-21T04:55:07;12.70;83.60
74101;DHT22;62462;52.530;21.682;2022-09-21T04:57:33;12.70;83.90
74101;DHT22;62462;52.530;21.682;2022-09-21T05:00:01;12.70;83.90
74101;DHT22;62462;52.530;21.682;2022-09-21T05:02:26;12.70;84.00
74101;DHT22;62462;52.530;21.682;2022-09-21T05:04:52;12.60;84.20
74101;DHT22;62462;52.530;21.682;2022-09-21T05:07:18;12.70;84.20
74101;DHT22;62462;52.530;21.682;2022-09-21T05:09:44;12.70;84.30
74101;DHT22;62462;52.530;21.682;2022-09-21T05:12:35;12.70;84.30
74101;DHT22;62462;52.530;21.682;2022-09-21T05:15:01;12.70;84.40
74101;DHT22;62462;52.530;21.682;2022-09-21T05:17:27;12.70;84.30
74101;DHT22;62462;52.530;21.682;2022-09-21T05:19:53;12.70;84.50
74101;DHT22;62462;52.530;21.682;2022-09-21T05:22:19;12.70;84.60
74101;DHT22;62462;52.530;21.682;2022-09-21T05:24:45;12.70;84.70
74101;DHT22;62462;52.530;21.682;2022-09-21T05:27:11;12.70;85.70
74101;DHT22;62462;52.530;21.682;2022-09-21T05:29:38;12.70;84.80
74101;DHT22;62462;52.530;21.682;2022-09-21T05:34:55;12.70;84.80
74101;DHT22;62462;52.530;21.682;2022-09-21T05:37:48;12.70;84.80
74101;DHT22;62462;52.530;21.682;2022-09-21T05:40:17;12.80;84.80
74101;DHT22;62462;52.530;21.682;2022-09-21T05:42:43;12.80;84.70
74101;DHT22;62462;52.530;21.682;2022-09-21T05:45:15;12.80;84.60
74101;DHT22;62462;52.530;21.682;2022-09-21T05:47:58;12.80;84.90
74101;DHT22;62462;52.530;21.682;2022-09-21T05:50:28;12.80;84.90
74101;DHT22;62462;52.530;21.682;2022-09-21T06:04:31;12.80;84.80
74101;DHT22;62462;52.530;21.682;2022-09-21T06:06:57;12.80;84.80
74101;DHT22;62462;52.530;21.682;2022-09-21T06:09:22;12.90;84.80
74101;DHT22;62462;52.530;21.682;2022-09-21T06:11:50;12.90;84.70
74101;DHT22;62462;52.530;21.682;2022-09-21T06:14:16;12.90;84.60
74101;DHT22;62462;52.530;21.682;2022-09-21T06:16:49;12.90;84.50
74101;DHT22;62462;52.530;21.682;2022-09-21T06:19:15;12.90;84.50
74101;DHT22;62462;52.530;21.682;2022-09-21T06:21:41;13.00;84.60
74101;DHT22;62462;52.530;21.682;2022-09-21T06:24:07;13.00;84.40
74101;DHT22;62462;52.530;21.682;2022-09-21T06:26:33;13.00;85.30
74101;DHT22;62462;52.530;21.682;2022-09-21T06:28:58;13.00;84.20
74101;DHT22;62462;52.530;21.682;2022-09-21T06:31:26;13.00;84.20
74101;DHT22;62462;52.530;21.682;2022-09-21T06:33:52;13.00;84.30
74101;DHT22;62462;52.530;21.682;2022-09-21T06:36:18;13.00;84.30
74101;DHT22;62462;52.530;21.682;2022-09-21T06:38:43;13.00;84.20
74101;DHT22;62462;52.530;21.682;2022-09-21T06:41:09;13.00;84.10
74101;DHT22;62462;52.530;21.682;2022-09-21T06:43:35;13.00;84.10
74101;DHT22;62462;52.530;21.682;2022-09-21T06:46:02;13.10;84.00
74101;DHT22;62462;52.530;21.682;2022-09-21T06:48:29;13.10;83.80
74101;DHT22;62462;52.530;21.682;2022-09-21T06:50:57;13.10;83.80
74101;DHT22;62462;52.530;21.682;2022-09-21T06:53:24;13.20;83.70
74101;DHT22;62462;52.530;21.682;2022-09-21T06:55:49;13.20;83.60
74101;DHT22;62462;52.530;21.682;2022-09-21T06:58:15;13.20;83.40
74101;DHT22;62462;52.530;21.682;2022-09-21T07:00:41;13.20;83.30
74101;DHT22;62462;52.530;21.682;2022-09-21T07:03:10;13.30;83.30
74101;DHT22;62462;52.530;21.682;2022-09-21T07:05:38;13.30;83.20
74101;DHT22;62462;52.530;21.682;2022-09-21T07:08:05;13.40;83.10
74101;DHT22;62462;52.530;21.682;2022-09-21T07:10:31;13.40;83.00
74101;DHT22;62462;52.530;21.682;2022-09-21T07:13:04;13.40;82.90
74101;DHT22;62462;52.530;21.682;2022-09-21T07:15:31;13.50;82.80
74101;DHT22;62462;52.530;21.682;2022-09-21T07:17:57;13.50;82.50
74101;DHT22;62462;52.530;21.682;2022-09-21T07:20:23;13.50;82.60
74101;DHT22;62462;52.530;21.682;2022-09-21T07:22:49;13.50;82.60
74101;DHT22;62462;52.530;21.682;2022-09-21T07:25:15;13.50;82.50
74101;DHT22;62462;52.530;21.682;2022-09-21T07:27:41;13.50;82.40
74101;DHT22;62462;52.530;21.682;2022-09-21T07:30:07;13.60;82.00
74101;DHT22;62462;52.530;21.682;2022-09-21T07:32:33;13.60;81.90
74101;DHT22;62462;52.530;21.682;2022-09-21T07:34:59;13.60;82.00
74101;DHT22;62462;52.530;21.682;2022-09-21T07:37:26;13.70;82.20
74101;DHT22;62462;52.530;21.682;2022-09-21T07:39:52;13.70;82.10
74101;DHT22;62462;52.530;21.682;2022-09-21T07:42:19;13.70;82.00
74101;DHT22;62462;52.530;21.682;2022-09-21T07:44:46;13.70;81.40
74101;DHT22;62462;52.530;21.682;2022-09-21T07:47:12;13.80;81.50
74101;DHT22;62462;52.530;21.682;2022-09-21T07:49:38;13.70;81.40
74101;DHT22;62462;52.530;21.682;2022-09-21T07:52:04;13.80;81.60
74101;DHT22;62462;52.530;21.682;2022-09-21T07:54:30;13.80;81.60
74101;DHT22;62462;52.530;21.682;2022-09-21T07:56:56;13.90;81.70
74101;DHT22;62462;52.530;21.682;2022-09-21T07:59:40;13.90;81.50
74101;DHT22;62462;52.530;21.682;2022-09-21T08:02:06;13.90;81.20
74101;DHT22;62462;52.530;21.682;2022-09-21T08:04:32;13.80;81.10
74101;DHT22;62462;52.530;21.682;2022-09-21T08:06:58;13.80;81.30
74101;DHT22;62462;52.530;21.682;2022-09-21T08:09:23;13.80;81.40
74101;DHT22;62462;52.530;21.682;2022-09-21T08:11:49;13.70;81.30
74101;DHT22;62462;52.530;21.682;2022-09-21T08:14:16;13.80;81.50
74101;DHT22;62462;52.530;21.682;2022-09-21T08:16:45;13.80;81.50
74101;DHT22;62462;52.530;21.682;2022-09-21T08:19:13;13.70;81.30
74101;DHT22;62462;52.530;21.682;2022-09-21T08:21:39;13.70;81.50
74101;DHT22;62462;52.530;21.682;2022-09-21T08:24:05;13.80;81.60
74101;DHT22;62462;52.530;21.682;2022-09-21T08:26:31;13.80;81.50
74101;DHT22;62462;52.530;21.682;2022-09-21T08:28:58;13.90;81.70
74101;DHT22;62462;52.530;21.682;2022-09-21T08:31:24;14.00;81.40
74101;DHT22;62462;52.530;21.682;2022-09-21T08:33:51;14.00;80.80
74101;DHT22;62462;52.530;21.682;2022-09-21T08:36:18;14.10;80.90
74101;DHT22;62462;52.530;21.682;2022-09-21T08:38:44;14.10;80.40
74101;DHT22;62462;52.530;21.682;2022-09-21T08:44:10;14.30;80.60
74101;DHT22;62462;52.530;21.682;2022-09-21T08:46:38;14.50;80.40
74101;DHT22;62462;52.530;21.682;2022-09-21T08:49:10;14.50;79.70
74101;DHT22;62462;52.530;21.682;2022-09-21T08:51:45;14.60;79.50
74101;DHT22;62462;52.530;21.682;2022-09-21T08:55:05;14.60;79.30
74101;DHT22;62462;52.530;21.682;2022-09-21T08:57:31;14.50;79.00
74101;DHT22;62462;52.530;21.682;2022-09-21T08:59:58;14.50;78.90
74101;DHT22;62462;52.530;21.682;2022-09-21T09:10:36;14.50;79.00
74101;DHT22;62462;52.530;21.682;2022-09-21T09:21:15;14.80;79.00
74101;DHT22;62462;52.530;21.682;2022-09-21T09:23:51;15.00;79.00
74101;DHT22;62462;52.530;21.682;2022-09-21T09:26:29;15.10;78.30
74101;DHT22;62462;52.530;21.682;2022-09-21T09:29:01;15.10;76.70
74101;DHT22;62462;52.530;21.682;2022-09-21T09:31:34;15.10;76.50
74101;DHT22;62462;52.530;21.682;2022-09-21T09:34:11;15.20;76.40
74101;DHT22;62462;52.530;21.682;2022-09-21T09:36:45;15.40;76.40
74101;DHT22;62462;52.530;21.682;2022-09-21T09:39:15;15.50;75.80
74101;DHT22;62462;52.530;21.682;2022-09-21T09:42:20;15.60;75.70
74101;DHT22;62462;52.530;21.682;2022-09-21T09:45:15;15.70;73.50
74101;DHT22;62462;52.530;21.682;2022-09-21T09:50:32;15.70;73.90
74101;DHT22;62462;52.530;21.682;2022-09-21T09:53:06;15.70;73.90
74101;DHT22;62462;52.530;21.682;2022-09-21T09:56:12;15.70;74.00
74101;DHT22;62462;52.530;21.682;2022-09-21T09:58:42;15.70;73.90
74101;DHT22;62462;52.530;21.682;2022-09-21T10:01:41;15.60;73.00
74101;DHT22;62462;52.530;21.682;2022-09-21T10:04:09;15.70;73.70
74101;DHT22;62462;52.530;21.682;2022-09-21T10:06:36;15.70;72.30
74101;DHT22;62462;52.530;21.682;2022-09-21T10:09:32;15.80;73.20
74101;DHT22;62462;52.530;21.682;2022-09-21T10:12:22;15.90;72.60
74101;DHT22;62462;52.530;21.682;2022-09-21T10:14:51;15.80;71.50
74101;DHT22;62462;52.530;21.682;2022-09-21T10:17:18;15.80;71.80
74101;DHT22;62462;52.530;21.682;2022-09-21T10:19:44;15.80;71.90
74101;DHT22;62462;52.530;21.682;2022-09-21T10:22:18;15.80;71.80
74101;DHT22;62462;52.530;21.682;2022-09-21T10:24:53;15.90;70.30
74101;DHT22;62462;52.530;21.682;2022-09-21T10:27:27;15.90;70.00
74101;DHT22;62462;52.530;21.682;2022-09-21T10:29:54;15.90;70.50
74101;DHT22;62462;52.530;21.682;2022-09-21T10:32:25;16.00;70.80
74101;DHT22;62462;52.530;21.682;2022-09-21T10:37:37;16.10;70.60
74101;DHT22;62462;52.530;21.682;2022-09-21T10:42:47;16.40;70.20
74101;DHT22;62462;52.530;21.682;2022-09-21T10:45:18;16.30;68.70
74101;DHT22;62462;52.530;21.682;2022-09-21T10:50:41;16.30;68.20
74101;DHT22;62462;52.530;21.682;2022-09-21T10:55:41;16.40;69.00
74101;DHT22;62462;52.530;21.682;2022-09-21T10:58:08;16.50;68.50
74101;DHT22;62462;52.530;21.682;2022-09-21T11:00:41;16.50;69.20
74101;DHT22;62462;52.530;21.682;2022-09-21T11:06:06;16.50;68.30
74101;DHT22;62462;52.530;21.682;2022-09-21T11:08:40;16.40;68.80
74101;DHT22;62462;52.530;21.682;2022-09-21T11:14:29;16.10;70.10
74101;DHT22;62462;52.530;21.682;2022-09-21T11:17:08;16.10;71.10
74101;DHT22;62462;52.530;21.682;2022-09-21T11:19:50;16.20;71.70
74101;DHT22;62462;52.530;21.682;2022-09-21T11:22:34;16.40;70.50
74101;DHT22;62462;52.530;21.682;2022-09-21T11:25:49;16.60;69.40
74101;DHT22;62462;52.530;21.682;2022-09-21T11:28:38;16.60;65.90
74101;DHT22;62462;52.530;21.682;2022-09-21T11:37:02;16.50;66.10
74101;DHT22;62462;52.530;21.682;2022-09-21T11:45:54;17.00;63.60
74101;DHT22;62462;52.530;21.682;2022-09-21T11:51:26;17.30;63.50
74101;DHT22;62462;52.530;21.682;2022-09-21T12:05:40;17.90;60.70
74101;DHT22;62462;52.530;21.682;2022-09-21T12:13:34;17.80;58.00
74101;DHT22;62462;52.530;21.682;2022-09-21T12:16:16;17.70;58.20
74101;DHT22;62462;52.530;21.682;2022-09-21T12:21:29;17.40;59.50
74101;DHT22;62462;52.530;21.682;2022-09-21T12:23:59;17.30;60.30
74101;DHT22;62462;52.530;21.682;2022-09-21T12:26:40;17.30;60.80
74101;DHT22;62462;52.530;21.682;2022-09-21T12:29:14;17.50;59.30
74101;DHT22;62462;52.530;21.682;2022-09-21T12:32:04;17.60;58.00
74101;DHT22;62462;52.530;21.682;2022-09-21T12:34:40;17.70;58.00
74101;DHT22;62462;52.530;21.682;2022-09-21T12:50:38;18.40;57.70
74101;DHT22;62462;52.530;21.682;2022-09-21T12:53:06;18.60;57.50
74101;DHT22;62462;52.530;21.682;2022-09-21T13:06:21;18.90;55.40
74101;DHT22;62462;52.530;21.682;2022-09-21T13:08:54;18.90;54.40
74101;DHT22;62462;52.530;21.682;2022-09-21T13:11:21;19.00;55.40
74101;DHT22;62462;52.530;21.682;2022-09-21T13:13:55;19.10;55.10
74101;DHT22;62462;52.530;21.682;2022-09-21T13:19:01;19.30;54.50
74101;DHT22;62462;52.530;21.682;2022-09-21T13:21:29;19.40;53.30
74101;DHT22;62462;52.530;21.682;2022-09-21T13:24:00;19.50;53.60
74101;DHT22;62462;52.530;21.682;2022-09-21T13:26:36;19.60;53.40
74101;DHT22;62462;52.530;21.682;2022-09-21T13:31:56;19.60;53.10
74101;DHT22;62462;52.530;21.682;2022-09-21T13:34:33;19.50;52.30
74101;DHT22;62462;52.530;21.682;2022-09-21T13:37:12;19.20;52.70
74101;DHT22;62462;52.530;21.682;2022-09-21T13:39:43;18.90;54.30
74101;DHT22;62462;52.530;21.682;2022-09-21T13:44:57;18.70;53.10
74101;DHT22;62462;52.530;21.682;2022-09-21T13:47:30;18.50;53.80
74101;DHT22;62462;52.530;21.682;2022-09-21T13:49:57;18.40;54.10
74101;DHT22;62462;52.530;21.682;2022-09-21T13:52:46;18.30;54.20
74101;DHT22;62462;52.530;21.682;2022-09-21T13:58:00;18.40;55.00
74101;DHT22;62462;52.530;21.682;2022-09-21T14:00:56;18.70;54.80
74101;DHT22;62462;52.530;21.682;2022-09-21T14:03:43;19.00;52.50
74101;DHT22;62462;52.530;21.682;2022-09-21T14:06:26;19.10;51.40
74101;DHT22;62462;52.530;21.682;2022-09-21T14:09:05;19.10;52.80
74101;DHT22;62462;52.530;21.682;2022-09-21T14:14:32;19.30;51.40
74101;DHT22;62462;52.530;21.682;2022-09-21T14:17:00;19.40;48.10
74101;DHT22;62462;52.530;21.682;2022-09-21T14:24:47;19.60;46.90
74101;DHT22;62462;52.530;21.682;2022-09-21T14:29:57;19.50;48.60
74101;DHT22;62462;52.530;21.682;2022-09-21T14:32:33;19.60;48.20
74101;DHT22;62462;52.530;21.682;2022-09-21T14:35:19;19.80;48.30
74101;DHT22;62462;52.530;21.682;2022-09-21T14:37:58;20.00;48.10
74101;DHT22;62462;52.530;21.682;2022-09-21T14:40:25;20.10;47.50
74101;DHT22;62462;52.530;21.682;2022-09-21T14:42:54;20.10;47.50
74101;DHT22;62462;52.530;21.682;2022-09-21T14:48:53;19.40;48.10
74101;DHT22;62462;52.530;21.682;2022-09-21T14:54:22;18.60;51.00
74101;DHT22;62462;52.530;21.682;2022-09-21T14:59:44;18.30;52.90
74101;DHT22;62462;52.530;21.682;2022-09-21T15:02:19;18.20;53.30
74101;DHT22;62462;52.530;21.682;2022-09-21T15:05:04;18.10;53.80
74101;DHT22;62462;52.530;21.682;2022-09-21T15:21:54;17.40;55.70
74101;DHT22;62462;52.530;21.682;2022-09-21T15:24:32;17.30;56.50
74101;DHT22;62462;52.530;21.682;2022-09-21T15:27:13;17.30;56.80
74101;DHT22;62462;52.530;21.682;2022-09-21T15:29:43;17.20;57.00
74101;DHT22;62462;52.530;21.682;2022-09-21T15:32:40;17.20;57.40
74101;DHT22;62462;52.530;21.682;2022-09-21T15:35:16;17.30;57.60
74101;DHT22;62462;52.530;21.682;2022-09-21T15:37:43;17.20;57.70
74101;DHT22;62462;52.530;21.682;2022-09-21T15:40:26;17.20;57.50
74101;DHT22;62462;52.530;21.682;2022-09-21T15:46:10;17.20;58.00
74101;DHT22;62462;52.530;21.682;2022-09-21T15:48:40;17.20;58.30
74101;DHT22;62462;52.530;21.682;2022-09-21T15:51:14;17.20;58.40
74101;DHT22;62462;52.530;21.682;2022-09-21T15:53:44;17.10;58.60
74101;DHT22;62462;52.530;21.682;2022-09-21T15:56:32;17.10;58.60
74101;DHT22;62462;52.530;21.682;2022-09-21T15:59:05;17.10;58.80
74101;DHT22;62462;52.530;21.682;2022-09-21T16:01:39;17.10;58.90
74101;DHT22;62462;52.530;21.682;2022-09-21T16:04:10;17.00;59.00
74101;DHT22;62462;52.530;21.682;2022-09-21T16:06:39;17.00;59.30
74101;DHT22;62462;52.530;21.682;2022-09-21T16:11:54;17.00;59.50
74101;DHT22;62462;52.530;21.682;2022-09-21T16:14:21;16.90;59.60
74101;DHT22;62462;52.530;21.682;2022-09-21T16:20:10;16.90;59.80
74101;DHT22;62462;52.530;21.682;2022-09-21T16:22:43;16.80;60.00
74101;DHT22;62462;52.530;21.682;2022-09-21T16:25:27;16.80;60.30
74101;DHT22;62462;52.530;21.682;2022-09-21T16:28:04;16.80;60.50
74101;DHT22;62462;52.530;21.682;2022-09-21T16:30:46;16.80;60.80
74101;DHT22;62462;52.530;21.682;2022-09-21T16:38:45;16.60;61.20
74101;DHT22;62462;52.530;21.682;2022-09-21T16:42:08;16.60;61.50
74101;DHT22;62462;52.530;21.682;2022-09-21T16:44:20;16.60;61.60
74101;DHT22;62462;52.530;21.682;2022-09-21T16:46:58;16.50;61.70
74101;DHT22;62462;52.530;21.682;2022-09-21T16:49:29;16.50;61.90
74101;DHT22;62462;52.530;21.682;2022-09-21T16:51:57;16.40;62.00
74101;DHT22;62462;52.530;21.682;2022-09-21T16:54:23;16.30;62.10
74101;DHT22;62462;52.530;21.682;2022-09-21T16:56:52;16.30;62.40
74101;DHT22;62462;52.530;21.682;2022-09-21T16:59:19;16.20;62.60
74101;DHT22;62462;52.530;21.682;2022-09-21T17:01:48;16.20;62.80
74101;DHT22;62462;52.530;21.682;2022-09-21T17:04:15;16.20;63.10
74101;DHT22;62462;52.530;21.682;2022-09-21T17:06:42;16.10;63.30
74101;DHT22;62462;52.530;21.682;2022-09-21T17:09:38;16.00;63.60
74101;DHT22;62462;52.530;21.682;2022-09-21T17:12:07;16.00;63.60
74101;DHT22;62462;52.530;21.682;2022-09-21T17:14:34;15.90;63.80
74101;DHT22;62462;52.530;21.682;2022-09-21T17:17:11;15.90;63.90
74101;DHT22;62462;52.530;21.682;2022-09-21T17:19:37;15.90;64.00
74101;DHT22;62462;52.530;21.682;2022-09-21T17:22:08;15.90;64.00
74101;DHT22;62462;52.530;21.682;2022-09-21T17:24:37;15.90;63.90
74101;DHT22;62462;52.530;21.682;2022-09-21T17:27:03;15.90;64.20
74101;DHT22;62462;52.530;21.682;2022-09-21T17:29:29;15.90;64.20
74101;DHT22;62462;52.530;21.682;2022-09-21T17:31:58;15.90;64.10
74101;DHT22;62462;52.530;21.682;2022-09-21T17:34:28;15.90;64.00
74101;DHT22;62462;52.530;21.682;2022-09-21T17:36:55;15.90;63.90
74101;DHT22;62462;52.530;21.682;2022-09-21T17:39:22;15.90;63.90
74101;DHT22;62462;52.530;21.682;2022-09-21T17:47:15;15.90;64.10
74101;DHT22;62462;52.530;21.682;2022-09-21T17:49:43;15.90;64.00
74101;DHT22;62462;52.530;21.682;2022-09-21T17:52:17;15.80;64.10
74101;DHT22;62462;52.530;21.682;2022-09-21T17:55:04;15.80;64.30
74101;DHT22;62462;52.530;21.682;2022-09-21T18:03:24;15.60;64.80
74101;DHT22;62462;52.530;21.682;2022-09-21T18:05:52;15.50;65.20
74101;DHT22;62462;52.530;21.682;2022-09-21T18:08:29;15.50;65.30
74101;DHT22;62462;52.530;21.682;2022-09-21T18:11:08;15.40;65.50
74101;DHT22;62462;52.530;21.682;2022-09-21T18:21:50;15.20;66.50
74101;DHT22;62462;52.530;21.682;2022-09-21T18:24:27;15.20;66.80
74101;DHT22;62462;52.530;21.682;2022-09-21T18:26:56;15.10;67.00
74101;DHT22;62462;52.530;21.682;2022-09-21T18:29:30;15.20;67.00
74101;DHT22;62462;52.530;21.682;2022-09-21T18:32:06;15.10;66.90
74101;DHT22;62462;52.530;21.682;2022-09-21T18:42:50;15.10;67.00
74101;DHT22;62462;52.530;21.682;2022-09-21T18:45:54;15.10;66.90
74101;DHT22;62462;52.530;21.682;2022-09-21T18:53:59;15.00;67.20
74101;DHT22;62462;52.530;21.682;2022-09-21T18:56:27;15.00;67.20
74101;DHT22;62462;52.530;21.682;2022-09-21T18:58:55;15.00;67.50
74101;DHT22;62462;52.530;21.682;2022-09-21T19:01:23;15.00;67.50
74101;DHT22;62462;52.530;21.682;2022-09-21T19:03:50;15.00;67.50
74101;DHT22;62462;52.530;21.682;2022-09-21T19:22:43;14.80;67.30
74101;DHT22;62462;52.530;21.682;2022-09-21T19:30:39;14.70;67.20
74101;DHT22;62462;52.530;21.682;2022-09-21T19:33:35;14.70;67.30
74101;DHT22;62462;52.530;21.682;2022-09-21T19:36:00;14.70;67.30
74101;DHT22;62462;52.530;21.682;2022-09-21T19:38:27;14.70;67.30
74101;DHT22;62462;52.530;21.682;2022-09-21T19:41:01;14.60;67.30
74101;DHT22;62462;52.530;21.682;2022-09-21T19:43:39;14.60;67.40
74101;DHT22;62462;52.530;21.682;2022-09-21T19:48:47;14.50;67.60
74101;DHT22;62462;52.530;21.682;2022-09-21T19:51:40;14.40;67.80
74101;DHT22;62462;52.530;21.682;2022-09-21T19:54:13;14.40;68.00